Gregory, South Dakota
Current Conditions -  °F | °C
As of 8:53 AM on Thursday 18 Dec 2014 (Local Time) from KICR Reporting Station
Overcast Overcast  
Wind Chill: -10°   Ceiling: 1200
Heat Index: -4°   Visibility: NA
Dew Point: -6°   Wind: 10mph
Humidity: 85%   Direction: 150°SSE
Pressure: 30.11"   Gusts: NA
Location:  43.23°N, 99.43°W
Report Text: KICR 181453Z AUTO 15009KT OVC012 M04/M06 A3011 RMK AO2 SLP224 T10391061 51003
Loading
Personal Weather Stations






























Interactive Weather Map New forecast layout! Learn more

10-Day Weather Forecast

Advertisements
Track Severe Weather on mobile